Terminal Aerodrome Forecast
Issued by NWS Pittsburgh, PA

Current Version | Previous Version | Graphics & Text | Print | Product List | Glossary On
Versions: 1 2 3 4 5 6 7 8 9 10 11 12 13 14 15 16 17 18 19 20 21 22 23 24 25
000
FTUS41 KPBZ 220437 AAB
TAFPIT
TAF AMD
KPIT 220437Z 2205/2306 22006KT P6SM BKN050
     FM220900 28008KT P6SM -SHRA OVC035
     FM221000 30007KT 5SM -SHSN BKN015
     FM221300 30007KT P6SM BKN025
     FM230100 27004KT P6SM SCT035=

USA.gov is the U.S. government's official web portal to all federal, state and local government web resources and services.